createdAt,value
2023-03-19T00:00:49.584Z,98128.59
2023-03-19T00:03:37.212Z,98132.19
2023-03-19T00:06:04.637Z,98138.44
2023-03-19T00:08:32.369Z,98131.28
2023-03-19T00:10:59.648Z,98132.69
2023-03-19T00:13:27.499Z,98131.47
2023-03-19T00:15:54.773Z,98131.84
2023-03-19T00:18:22.421Z,98123.31
2023-03-19T00:20:49.626Z,98123.66
2023-03-19T00:23:17.161Z,98122.72
2023-03-19T00:25:44.514Z,98121.81
2023-03-19T00:28:12.195Z,98125.44
2023-03-19T00:30:39.592Z,98124.41
2023-03-19T00:33:07.295Z,98123.50
2023-03-19T00:35:34.811Z,98121.97
2023-03-19T00:38:03.018Z,98123.47
2023-03-19T00:40:30.615Z,98120.97
2023-03-19T00:42:58.272Z,98121.81
2023-03-19T00:45:25.558Z,98109.97
2023-03-19T00:47:53.154Z,98108.91
2023-03-19T00:50:20.568Z,98115.94
2023-03-19T00:52:48.116Z,98107.22
2023-03-19T00:55:15.454Z,98110.91
2023-03-19T00:57:42.984Z,98114.28
2023-03-19T01:00:11.501Z,98117.97
2023-03-19T01:02:39.002Z,98116.88
2023-03-19T01:05:08.155Z,98112.97
2023-03-19T01:07:35.989Z,98116.03
2023-03-19T01:10:03.666Z,98107.38
2023-03-19T01:12:31.244Z,98111.59
2023-03-19T01:14:58.619Z,98115.44
2023-03-19T01:17:26.468Z,98114.44
2023-03-19T01:19:53.719Z,98115.44
2023-03-19T01:22:21.420Z,98113.88
2023-03-19T01:24:48.814Z,98117.66
2023-03-19T01:27:16.497Z,98117.91
2023-03-19T01:29:43.747Z,98112.88
2023-03-19T01:32:11.743Z,98106.00
2023-03-19T01:34:39.040Z,98110.66
2023-03-19T01:37:06.591Z,98109.53
2023-03-19T01:39:34.023Z,98112.31
2023-03-19T01:42:03.359Z,98110.97
2023-03-19T01:44:37.439Z,98101.75
2023-03-19T01:47:32.244Z,98107.88
2023-03-19T01:50:00.730Z,98106.09
2023-03-19T01:52:34.966Z,98106.94
2023-03-19T01:55:05.888Z,98113.66
2023-03-19T01:57:33.666Z,98115.91
2023-03-19T02:00:05.493Z,98119.78
2023-03-19T02:02:35.456Z,98114.81
2023-03-19T02:05:10.845Z,98112.88
2023-03-19T02:07:43.115Z,98110.47
2023-03-19T02:10:17.795Z,98113.34
2023-03-19T02:12:45.369Z,98112.22
2023-03-19T02:15:13.072Z,98110.97
2023-03-19T02:17:42.362Z,98113.66
2023-03-19T02:20:34.964Z,98107.47
2023-03-19T02:23:42.411Z,98108.88
2023-03-19T02:26:20.468Z,98113.75
2023-03-19T02:28:51.550Z,98117.00
2023-03-19T02:31:20.859Z,98116.16
2023-03-19T02:34:28.704Z,98120.94
2023-03-19T02:37:05.571Z,98118.34
2023-03-19T02:39:58.038Z,98113.41
2023-03-19T02:42:30.023Z,98116.59
2023-03-19T02:44:58.721Z,98127.63
2023-03-19T02:47:27.725Z,98121.88
2023-03-19T02:49:55.314Z,98132.38
2023-03-19T02:52:22.778Z,98126.88
2023-03-19T02:54:50.566Z,98126.53
2023-03-19T02:57:17.913Z,98137.56
2023-03-19T02:59:45.505Z,98134.41
2023-03-19T03:02:13.490Z,98136.31
2023-03-19T03:04:41.965Z,98134.47
2023-03-19T03:07:10.137Z,98135.72
2023-03-19T03:09:38.017Z,98143.59
2023-03-19T03:12:06.232Z,98133.28
2023-03-19T03:14:33.877Z,98146.25
2023-03-19T03:17:01.165Z,98144.47
2023-03-19T03:19:28.779Z,98140.47
2023-03-19T03:21:56.088Z,98140.00
2023-03-19T03:24:24.342Z,98135.94
2023-03-19T03:26:51.752Z,98139.56
2023-03-19T03:29:19.546Z,98141.84
2023-03-19T03:31:46.884Z,98127.63
2023-03-19T03:34:14.519Z,98137.53
2023-03-19T03:36:41.796Z,98136.69
2023-03-19T03:39:09.447Z,98137.19
2023-03-19T03:41:36.735Z,98128.56
2023-03-19T03:44:04.425Z,98141.53
2023-03-19T03:46:31.725Z,98148.13
2023-03-19T03:48:59.246Z,98142.63
2023-03-19T03:51:26.514Z,98140.03
2023-03-19T03:53:54.112Z,98136.69
2023-03-19T03:56:21.347Z,98140.88
2023-03-19T03:58:48.895Z,98128.81
2023-03-19T04:01:17.574Z,98132.16
2023-03-19T04:03:45.711Z,98131.31
2023-03-19T04:06:19.948Z,98134.75
2023-03-19T04:08:47.937Z,98136.50
2023-03-19T04:11:15.453Z,98135.75
2023-03-19T04:13:42.982Z,98136.16
2023-03-19T04:16:11.311Z,98134.13
2023-03-19T04:18:39.123Z,98132.56
2023-03-19T04:21:07.294Z,98139.41
2023-03-19T04:23:35.169Z,98135.22
2023-03-19T04:26:05.635Z,98140.97
2023-03-19T04:28:34.170Z,98132.63
2023-03-19T04:31:08.071Z,98140.88
2023-03-19T04:33:36.574Z,98140.72
2023-03-19T04:36:05.136Z,98139.81
2023-03-19T04:38:32.978Z,98134.94
2023-03-19T04:41:01.853Z,98120.31
2023-03-19T04:43:30.172Z,98121.38
2023-03-19T04:45:57.531Z,98119.97
2023-03-19T04:48:26.618Z,98124.72
2023-03-19T04:50:57.074Z,98137.69
2023-03-19T04:53:25.067Z,98136.09
2023-03-19T04:55:52.336Z,98132.56
2023-03-19T04:58:19.855Z,98124.88
2023-03-19T05:00:47.690Z,98135.03
2023-03-19T05:03:16.601Z,98132.44
2023-03-19T05:05:43.928Z,98126.09
2023-03-19T05:08:11.772Z,98123.34
2023-03-19T05:10:39.682Z,98127.63
2023-03-19T05:13:07.442Z,98123.00
2023-03-19T05:15:34.858Z,98128.91
2023-03-19T05:18:02.474Z,98129.66
2023-03-19T05:20:29.836Z,98125.13
2023-03-19T05:22:57.455Z,98133.53
2023-03-19T05:25:24.804Z,98135.13
2023-03-19T05:27:52.526Z,98135.63
2023-03-19T05:30:19.911Z,98134.72
2023-03-19T05:32:47.776Z,98136.22
2023-03-19T05:35:15.268Z,98135.25
2023-03-19T05:37:42.949Z,98138.59
2023-03-19T05:40:12.518Z,98138.94
2023-03-19T05:42:40.041Z,98128.38
2023-03-19T05:45:07.993Z,98135.75
2023-03-19T05:47:35.629Z,98144.81
2023-03-19T05:50:03.191Z,98137.94
2023-03-19T05:52:31.076Z,98143.66
2023-03-19T05:54:58.408Z,98144.84
2023-03-19T05:57:26.751Z,98139.22
2023-03-19T05:59:54.113Z,98141.63
2023-03-19T06:02:22.298Z,98151.28
2023-03-19T06:04:49.671Z,98143.16
2023-03-19T06:07:17.194Z,98155.97
2023-03-19T06:09:44.535Z,98150.19
2023-03-19T06:12:12.253Z,98153.00
2023-03-19T06:14:39.555Z,98156.13
2023-03-19T06:17:07.392Z,98148.63
2023-03-19T06:19:34.698Z,98146.44
2023-03-19T06:22:02.615Z,98153.41
2023-03-19T06:24:30.624Z,98150.94
2023-03-19T06:26:58.330Z,98148.91
2023-03-19T06:29:27.121Z,98149.72
2023-03-19T06:31:57.874Z,98153.28
2023-03-19T06:34:25.623Z,98151.63
2023-03-19T06:36:53.979Z,98149.03
2023-03-19T06:39:21.871Z,98164.56
2023-03-19T06:41:49.528Z,98168.13
2023-03-19T06:44:17.032Z,98163.47
2023-03-19T06:46:45.219Z,98160.47
2023-03-19T06:49:12.586Z,98160.75
2023-03-19T06:51:40.430Z,98158.41
2023-03-19T06:54:07.787Z,98158.25
2023-03-19T06:56:35.498Z,98153.94
2023-03-19T06:59:03.047Z,98165.09
2023-03-19T07:01:30.742Z,98146.31
2023-03-19T07:03:58.060Z,98148.75
2023-03-19T07:06:25.612Z,98155.75
2023-03-19T07:08:52.852Z,98152.13
2023-03-19T07:11:20.873Z,98147.72
2023-03-19T07:13:48.172Z,98151.53
2023-03-19T07:16:15.782Z,98156.00
2023-03-19T07:18:43.066Z,98160.69
2023-03-19T07:21:10.802Z,98154.34
2023-03-19T07:23:38.228Z,98158.13
2023-03-19T07:26:05.867Z,98162.31
2023-03-19T07:28:33.237Z,98158.63
2023-03-19T07:31:00.777Z,98154.22
2023-03-19T07:33:28.205Z,98160.13
2023-03-19T07:35:56.034Z,98161.00
2023-03-19T07:38:23.386Z,98167.72
2023-03-19T07:41:01.499Z,98156.53
2023-03-19T07:43:29.588Z,98154.34
2023-03-19T07:45:57.509Z,98160.91
2023-03-19T07:48:25.092Z,98161.94
2023-03-19T07:50:54.373Z,98157.50
2023-03-19T07:53:21.665Z,98165.25
2023-03-19T07:55:49.349Z,98168.63
2023-03-19T07:58:17.162Z,98161.44
2023-03-19T08:00:48.153Z,98172.66
2023-03-19T08:03:16.171Z,98166.00
2023-03-19T08:05:43.736Z,98168.16
2023-03-19T08:08:11.083Z,98166.44
2023-03-19T08:10:39.327Z,98165.84
2023-03-19T08:13:06.945Z,98159.56
2023-03-19T08:15:34.915Z,98158.06
2023-03-19T08:18:05.179Z,98172.25
2023-03-19T08:20:33.724Z,98164.75
2023-03-19T08:23:01.342Z,98159.63
2023-03-19T08:25:32.514Z,98159.91
2023-03-19T08:28:01.359Z,98163.13
2023-03-19T08:30:29.121Z,98161.63
2023-03-19T08:32:56.833Z,98164.00
2023-03-19T08:35:27.126Z,98159.28
2023-03-19T08:37:55.425Z,98171.22
2023-03-19T08:40:23.708Z,98164.84
2023-03-19T08:42:51.171Z,98172.13
2023-03-19T08:45:19.221Z,98176.34
2023-03-19T08:47:46.714Z,98172.06
2023-03-19T08:50:14.948Z,98165.75
2023-03-19T08:52:42.861Z,98166.50
2023-03-19T08:55:10.870Z,98167.63
2023-03-19T08:57:38.281Z,98168.13
2023-03-19T09:00:07.836Z,98164.81
2023-03-19T09:02:35.338Z,98166.84
2023-03-19T09:05:03.493Z,98159.63
2023-03-19T09:07:30.828Z,98159.63
2023-03-19T09:09:58.395Z,98166.41
2023-03-19T09:12:26.178Z,98174.72
2023-03-19T09:14:53.812Z,98162.19
2023-03-19T09:17:21.230Z,98161.09
2023-03-19T09:19:48.839Z,98167.69
2023-03-19T09:22:16.222Z,98154.03
2023-03-19T09:24:43.887Z,98167.56
2023-03-19T09:27:11.237Z,98159.75
2023-03-19T09:29:38.862Z,98167.44
2023-03-19T09:32:06.572Z,98169.66
2023-03-19T09:34:34.268Z,98163.28
2023-03-19T09:37:01.525Z,98170.13
2023-03-19T09:39:29.425Z,98163.19
2023-03-19T09:42:50.278Z,98158.25
2023-03-19T09:45:20.530Z,98148.81
2023-03-19T09:47:56.453Z,98154.47
2023-03-19T09:50:32.378Z,98152.59
2023-03-19T09:53:39.432Z,98140.09
2023-03-19T09:56:14.860Z,98147.09
2023-03-19T09:58:44.027Z,98142.63
2023-03-19T10:01:35.482Z,98136.81
2023-03-19T10:04:37.594Z,98127.88
2023-03-19T10:07:19.145Z,98133.19
2023-03-19T10:10:18.528Z,98125.44
2023-03-19T10:12:58.277Z,98137.19
2023-03-19T10:15:36.954Z,98136.13
2023-03-19T10:18:32.719Z,98126.00
2023-03-19T10:21:16.432Z,98117.97
2023-03-19T10:23:49.413Z,98124.53
2023-03-19T10:26:26.540Z,98126.59
2023-03-19T10:29:11.390Z,98124.97
2023-03-19T10:31:50.260Z,98119.19
2023-03-19T10:34:36.054Z,98114.09
2023-03-19T10:37:26.395Z,98126.25
2023-03-19T10:40:00.318Z,98110.69
2023-03-19T10:43:04.896Z,98115.69
2023-03-19T10:45:38.590Z,98114.03
2023-03-19T10:48:13.481Z,98108.81
2023-03-19T10:50:58.241Z,98095.91
2023-03-19T10:53:38.569Z,98101.19
2023-03-19T10:56:19.110Z,98097.94
2023-03-19T10:59:06.373Z,98096.28
2023-03-19T11:01:41.443Z,98095.31
2023-03-19T11:04:22.345Z,98099.84
2023-03-19T11:07:06.514Z,98087.63
2023-03-19T11:09:38.628Z,98080.16
2023-03-19T11:12:53.228Z,98085.19
2023-03-19T11:15:29.693Z,98074.63
2023-03-19T11:18:01.271Z,98074.59
2023-03-19T11:20:33.673Z,98067.03
2023-03-19T11:23:04.248Z,98065.53
2023-03-19T11:25:38.125Z,98053.56
2023-03-19T11:28:15.016Z,98047.13
2023-03-19T11:31:29.203Z,98044.59
2023-03-19T11:34:25.059Z,98038.84
2023-03-19T11:37:05.352Z,98034.97
2023-03-19T11:39:54.552Z,98033.25
2023-03-19T11:43:09.436Z,98020.94
2023-03-19T11:45:59.626Z,98024.13
2023-03-19T11:49:07.199Z,98026.66
2023-03-19T11:51:50.887Z,98019.81
2023-03-19T11:54:50.692Z,98014.31
2023-03-19T11:57:58.042Z,98002.25
2023-03-19T12:00:48.445Z,97992.72
2023-03-19T12:04:08.201Z,97994.56
2023-03-19T12:07:06.081Z,97991.19
2023-03-19T12:09:41.866Z,97989.72
2023-03-19T12:12:25.461Z,97986.53
2023-03-19T12:15:42.270Z,97988.97
2023-03-19T12:18:42.788Z,97983.78
2023-03-19T12:21:42.063Z,97974.75
2023-03-19T12:25:01.080Z,97972.34
2023-03-19T12:28:00.916Z,97963.19
2023-03-19T12:30:53.974Z,97967.13
2023-03-19T12:33:49.359Z,97973.56
2023-03-19T12:36:25.689Z,97966.25
2023-03-19T12:39:15.693Z,97960.84
2023-03-19T12:41:48.449Z,97958.25
2023-03-19T12:44:28.908Z,97955.91
2023-03-19T12:47:05.393Z,97952.56
2023-03-19T12:49:52.526Z,97956.63
2023-03-19T12:52:51.898Z,97956.41
2023-03-19T12:55:50.504Z,97953.03
2023-03-19T12:59:17.290Z,97952.44
2023-03-19T13:02:25.882Z,97945.13
2023-03-19T13:05:23.185Z,97948.88
2023-03-19T13:08:19.785Z,97940.50
2023-03-19T13:10:47.131Z,97938.75
2023-03-19T13:13:40.915Z,97945.56
2023-03-19T13:16:35.251Z,97935.50
2023-03-19T13:19:21.549Z,97939.19
2023-03-19T13:21:55.526Z,97938.84
2023-03-19T13:24:28.075Z,97953.22
2023-03-19T13:26:58.617Z,97950.84
2023-03-19T13:29:32.266Z,97944.63
2023-03-19T13:32:44.045Z,97941.84
2023-03-19T13:35:36.661Z,97927.22
2023-03-19T13:38:27.942Z,97931.78
2023-03-19T13:41:00.430Z,97940.47
2023-03-19T13:43:30.636Z,97934.19
2023-03-19T13:46:13.014Z,97923.16
2023-03-19T13:48:46.477Z,97926.88
2023-03-19T13:51:20.354Z,97914.03
2023-03-19T13:54:12.932Z,97924.16
2023-03-19T13:57:08.661Z,97923.25
2023-03-19T13:59:39.385Z,97909.00
2023-03-19T14:02:22.056Z,97906.84
2023-03-19T14:05:04.329Z,97899.66
2023-03-19T14:07:41.024Z,97897.13
2023-03-19T14:10:25.533Z,97896.78
2023-03-19T14:13:08.495Z,97894.44
2023-03-19T14:15:41.603Z,97887.97
2023-03-19T14:18:19.509Z,97895.41
2023-03-19T14:21:12.934Z,97886.66
2023-03-19T14:23:52.716Z,97898.75
2023-03-19T14:26:23.198Z,97893.38
2023-03-19T14:29:08.490Z,97878.59
2023-03-19T14:31:44.133Z,97883.69
2023-03-19T14:34:11.784Z,97880.66
2023-03-19T14:36:47.646Z,97879.09
2023-03-19T14:39:29.256Z,97878.09
2023-03-19T14:42:29.111Z,97884.66
2023-03-19T14:45:20.210Z,97897.50
2023-03-19T14:48:32.923Z,97897.44
2023-03-19T14:51:27.917Z,97887.81
2023-03-19T14:54:07.351Z,97892.28
2023-03-19T14:56:36.815Z,97894.88
2023-03-19T14:59:06.536Z,97887.47
2023-03-19T15:01:41.355Z,97882.94
2023-03-19T15:04:15.994Z,97876.56
2023-03-19T15:07:04.573Z,97881.97
2023-03-19T15:09:34.251Z,97882.44
2023-03-19T15:12:13.567Z,97878.00
2023-03-19T15:15:11.530Z,97887.97
2023-03-19T15:17:39.499Z,97886.25
2023-03-19T15:20:22.755Z,97882.97
2023-03-19T15:23:01.632Z,97878.91
2023-03-19T15:25:29.252Z,97889.16
2023-03-19T15:28:13.772Z,97888.78
2023-03-19T15:30:53.904Z,97887.69
2023-03-19T15:33:40.101Z,97889.19
2023-03-19T15:36:19.121Z,97879.41
2023-03-19T15:39:07.416Z,97891.69
2023-03-19T15:41:43.033Z,97886.13
2023-03-19T15:44:42.768Z,97891.41
2023-03-19T15:47:22.030Z,97893.84
2023-03-19T15:50:16.422Z,97899.22
2023-03-19T15:52:54.405Z,97894.19
2023-03-19T15:55:25.092Z,97894.25
2023-03-19T15:58:02.990Z,97885.19
2023-03-19T16:00:30.763Z,97887.38
2023-03-19T16:02:58.347Z,97896.66
2023-03-19T16:05:32.104Z,97897.03
2023-03-19T16:08:17.612Z,97904.81
2023-03-19T16:10:48.651Z,97897.38
2023-03-19T16:13:37.917Z,97904.72
2023-03-19T16:16:23.894Z,97907.75
2023-03-19T16:18:57.785Z,97907.94
2023-03-19T16:21:28.206Z,97903.28
2023-03-19T16:24:09.123Z,97907.78
2023-03-19T16:26:43.247Z,97908.78
2023-03-19T16:29:45.801Z,97910.72
2023-03-19T16:32:24.180Z,97912.56
2023-03-19T16:34:57.202Z,97912.84
2023-03-19T16:37:45.089Z,97919.06
2023-03-19T16:40:12.283Z,97920.88
2023-03-19T16:42:45.276Z,97916.16
2023-03-19T16:45:16.087Z,97913.13
2023-03-19T16:47:52.487Z,97920.00
2023-03-19T16:50:31.678Z,97921.25
2023-03-19T16:53:01.386Z,97917.44
2023-03-19T16:55:36.869Z,97922.28
2023-03-19T16:58:11.974Z,97915.13
2023-03-19T17:00:39.666Z,97916.91
2023-03-19T17:03:17.337Z,97922.59
2023-03-19T17:05:46.827Z,97930.13
2023-03-19T17:08:15.135Z,97930.34
2023-03-19T17:10:51.039Z,97934.22
2023-03-19T17:13:28.469Z,97937.22
2023-03-19T17:16:14.742Z,97942.38
2023-03-19T17:18:44.011Z,97942.50
2023-03-19T17:21:16.665Z,97953.50
2023-03-19T17:23:44.373Z,97951.59
2023-03-19T17:26:28.106Z,97949.25
2023-03-19T17:28:57.141Z,97949.78
2023-03-19T17:31:31.776Z,97955.06
2023-03-19T17:34:05.959Z,97957.16
2023-03-19T17:36:33.808Z,97955.91
2023-03-19T17:39:01.878Z,97960.66
2023-03-19T17:41:32.740Z,97959.41
2023-03-19T17:44:03.237Z,97958.06
2023-03-19T17:46:38.785Z,97959.34
2023-03-19T17:49:12.437Z,97965.03
2023-03-19T17:51:39.701Z,97973.53
2023-03-19T17:54:12.721Z,97967.16
2023-03-19T17:56:43.382Z,97970.06
2023-03-19T17:59:11.768Z,97964.38
2023-03-19T18:01:45.238Z,97962.72
2023-03-19T18:04:17.305Z,97960.78
2023-03-19T18:06:54.516Z,97968.28
2023-03-19T18:09:28.387Z,97964.53
2023-03-19T18:11:56.172Z,97964.91
2023-03-19T18:14:23.829Z,97974.06
2023-03-19T18:16:51.609Z,97972.13
2023-03-19T18:19:30.340Z,97977.09
2023-03-19T18:21:58.025Z,97979.72
2023-03-19T18:24:25.807Z,97979.19
2023-03-19T18:26:53.544Z,97980.16
2023-03-19T18:29:21.126Z,97983.75
2023-03-19T18:31:50.508Z,97981.94
2023-03-19T18:34:18.770Z,97978.50
2023-03-19T18:36:46.200Z,97990.91
2023-03-19T18:39:15.959Z,97986.78
2023-03-19T18:41:44.201Z,97992.84
2023-03-19T18:44:12.464Z,97996.44
2023-03-19T18:46:41.853Z,97990.22
2023-03-19T18:49:36.426Z,97995.16
2023-03-19T18:52:04.071Z,97990.47
2023-03-19T18:54:32.314Z,97992.94
2023-03-19T18:57:02.951Z,97991.09
2023-03-19T18:59:33.808Z,97987.19
2023-03-19T19:02:33.808Z,97996.53
2023-03-19T19:05:02.175Z,97997.50
2023-03-19T19:07:29.699Z,97999.09
2023-03-19T19:09:57.264Z,97999.81
2023-03-19T19:12:26.689Z,97998.91
2023-03-19T19:14:54.558Z,98003.19
2023-03-19T19:17:29.280Z,97996.69
2023-03-19T19:19:57.158Z,98006.88
2023-03-19T19:22:24.617Z,98002.59
2023-03-19T19:24:52.229Z,98006.81
2023-03-19T19:27:24.496Z,98010.13
2023-03-19T19:29:53.221Z,98000.72
2023-03-19T19:32:26.348Z,98009.09
2023-03-19T19:34:54.570Z,98005.09
2023-03-19T19:37:23.662Z,98004.56
2023-03-19T19:39:51.881Z,98008.97
2023-03-19T19:42:22.724Z,98004.50
2023-03-19T19:44:58.956Z,98006.88
2023-03-19T19:47:27.855Z,97999.94
2023-03-19T19:49:56.561Z,98000.81
2023-03-19T19:52:23.961Z,98004.25
2023-03-19T19:54:52.058Z,98000.81
2023-03-19T19:57:24.794Z,97998.41
2023-03-19T19:59:54.034Z,97995.56
2023-03-19T20:02:28.505Z,97994.25
2023-03-19T20:04:57.981Z,97999.66
2023-03-19T20:07:25.812Z,97995.59
2023-03-19T20:09:53.466Z,98009.59
2023-03-19T20:12:31.064Z,98011.53
2023-03-19T20:14:59.638Z,98006.09
2023-03-19T20:17:27.387Z,98006.44
2023-03-19T20:19:55.114Z,98014.50
2023-03-19T20:22:22.391Z,98014.75
2023-03-19T20:24:51.523Z,98015.81
2023-03-19T20:27:30.265Z,98010.97
2023-03-19T20:29:57.949Z,98013.59
2023-03-19T20:32:39.196Z,98017.91
2023-03-19T20:35:18.308Z,98018.88
2023-03-19T20:37:46.715Z,98007.41
2023-03-19T20:40:15.353Z,98015.72
2023-03-19T20:42:48.538Z,98022.56
2023-03-19T20:45:24.494Z,98017.00
2023-03-19T20:47:53.022Z,98017.09
2023-03-19T20:50:33.242Z,98026.28
2023-03-19T20:53:03.843Z,98020.69
2023-03-19T20:55:35.363Z,98022.38
2023-03-19T20:58:14.353Z,98015.47
2023-03-19T21:00:42.292Z,98020.69
2023-03-19T21:03:16.933Z,98020.25
2023-03-19T21:05:46.782Z,98025.81
2023-03-19T21:08:20.625Z,98018.91
2023-03-19T21:10:49.380Z,98015.22
2023-03-19T21:13:19.136Z,98020.09
2023-03-19T21:15:49.834Z,98019.63
2023-03-19T21:18:17.321Z,98023.22
2023-03-19T21:20:51.015Z,98024.13
2023-03-19T21:23:56.623Z,98022.00
2023-03-19T21:26:25.076Z,98019.38
2023-03-19T21:29:01.893Z,98019.72
2023-03-19T21:31:29.635Z,98018.28
2023-03-19T21:33:58.482Z,98018.63
2023-03-19T21:36:27.676Z,98021.03
2023-03-19T21:38:54.983Z,98020.06
2023-03-19T21:41:36.027Z,98020.97
2023-03-19T21:44:20.939Z,98017.25
2023-03-19T21:46:49.449Z,98020.97
2023-03-19T21:49:18.111Z,98024.38
2023-03-19T21:51:46.904Z,98016.00
2023-03-19T21:54:15.790Z,98015.16
2023-03-19T21:56:45.953Z,98019.41
2023-03-19T21:59:23.964Z,98009.63
2023-03-19T22:01:51.521Z,98011.09
2023-03-19T22:04:19.464Z,98017.94
2023-03-19T22:06:47.176Z,98017.59
2023-03-19T22:09:14.532Z,98014.09
2023-03-19T22:11:42.724Z,98017.94
2023-03-19T22:14:27.042Z,98016.34
2023-03-19T22:16:56.751Z,98008.63
2023-03-19T22:19:24.766Z,98014.94
2023-03-19T22:21:52.505Z,98013.97
2023-03-19T22:24:19.780Z,98017.44
2023-03-19T22:26:56.457Z,98003.53
2023-03-19T22:29:28.495Z,97992.22
2023-03-19T22:31:56.939Z,98005.63
2023-03-19T22:34:30.685Z,98007.72
2023-03-19T22:36:59.644Z,98013.44
2023-03-19T22:39:26.920Z,98005.06
2023-03-19T22:41:54.627Z,97991.72
2023-03-19T22:44:31.033Z,97992.34
2023-03-19T22:47:01.790Z,97992.91
2023-03-19T22:49:30.156Z,97987.56
2023-03-19T22:51:58.397Z,97990.28
2023-03-19T22:54:26.313Z,97990.50
2023-03-19T22:56:53.870Z,97990.41
2023-03-19T22:59:21.656Z,97989.78
2023-03-19T23:01:49.531Z,97992.63
2023-03-19T23:04:32.504Z,97995.97
2023-03-19T23:07:01.233Z,97993.56
2023-03-19T23:09:38.863Z,97984.28
2023-03-19T23:14:36.862Z,97991.78
2023-03-19T23:17:17.568Z,97992.84
2023-03-19T23:19:44.960Z,97991.63
2023-03-19T23:22:16.696Z,97996.22
2023-03-19T23:24:44.878Z,97994.13
2023-03-19T23:27:26.252Z,98001.56
2023-03-19T23:29:53.814Z,97992.88
2023-03-19T23:32:22.018Z,97994.56
2023-03-19T23:34:59.627Z,97998.00
2023-03-19T23:37:29.211Z,98002.50
2023-03-19T23:39:57.742Z,97993.00
2023-03-19T23:42:31.749Z,98003.78
2023-03-19T23:45:03.844Z,97999.06
2023-03-19T23:47:32.298Z,97991.00
2023-03-19T23:49:59.589Z,97991.63
2023-03-19T23:52:27.151Z,97987.78
2023-03-19T23:54:54.465Z,97984.09
2023-03-19T23:57:26.681Z,97985.81
2023-03-19T23:59:54.214Z,97987.09
